Time;durP1;ratioP1;P1;durP2;ratioP2;P2;SDS_P1;SDS_P2;PMS_P1;PMS_P2;Temp;Humidity;BMP_temperature;BMP_pressure;BME280_temperature;BME280_humidity;BME280_pressure;Samples;Min_cycle;Max_cycle;Signal;HPM_P1;HPM_P2
2022/01/11 00:01:31;;;;;;;5.40;4.70;;;;;;;;;;5025992;28;20206;-67
2022/01/11 00:04:02;;;;;;;4.70;4.30;;;;;;;;;;5026324;28;20530;-66
2022/01/11 00:06:42;;;;;;;5.07;4.63;;;;;;;;;;5039505;28;20218;-67
2022/01/11 00:09:32;;;;;;;4.80;4.40;;;;;;;;;;5027725;28;20190;-65
2022/01/11 00:12:06;;;;;;;5.10;4.43;;;;;;;;;;5011921;28;20203;-65
2022/01/11 00:14:39;;;;;;;4.80;4.40;;;;;;;;;;5035414;28;20239;-66
2022/01/11 00:17:09;;;;;;;5.30;4.90;;;;;;;;;;5029730;28;20203;-67
2022/01/11 00:19:40;;;;;;;5.60;5.00;;;;;;;;;;5016182;28;20203;-65
2022/01/11 00:22:19;;;;;;;4.80;4.40;;;;;;;;;;5030293;28;20624;-65
2022/01/11 00:24:47;;;;;;;5.17;4.60;;;;;;;;;;5027215;28;20261;-65
2022/01/11 00:27:18;;;;;;;4.90;4.50;;;;;;;;;;5023524;28;20210;-65
2022/01/11 00:29:52;;;;;;;4.40;4.10;;;;;;;;;;5026571;28;20199;-66
2022/01/11 00:32:40;;;;;;;3.90;3.60;;;;;;;;;;5027061;28;20199;-65
2022/01/11 00:35:27;;;;;;;4.37;3.97;;;;;;;;;;5008799;28;20763;-65
2022/01/11 00:37:57;;;;;;;4.13;3.80;;;;;;;;;;5028592;28;20223;-67
2022/01/11 00:40:28;;;;;;;4.53;4.13;;;;;;;;;;5026019;28;20191;-65
2022/01/11 00:43:01;;;;;;;4.50;4.10;;;;;;;;;;5025581;28;20199;-65
2022/01/11 00:45:30;;;;;;;4.40;4.00;;;;;;;;;;5026601;28;20211;-65
2022/01/11 00:48:03;;;;;;;4.40;4.00;;;;;;;;;;5023944;28;20226;-65
2022/01/11 00:50:39;;;;;;;4.87;4.47;;;;;;;;;;5008044;28;20188;-67
2022/01/11 00:53:13;;;;;;;4.77;4.37;;;;;;;;;;5022136;28;20206;-66
2022/01/11 00:55:44;;;;;;;3.93;3.63;;;;;;;;;;5033208;28;20214;-65
2022/01/11 00:58:24;;;;;;;4.20;3.80;;;;;;;;;;5025564;28;20211;-65
2022/01/11 01:00:52;;;;;;;4.20;3.80;;;;;;;;;;5022050;28;20223;-65
2022/01/11 01:03:25;;;;;;;4.10;3.80;;;;;;;;;;5021831;28;20542;-65
2022/01/11 01:05:57;;;;;;;4.40;4.00;;;;;;;;;;5034390;28;20225;-65
2022/01/11 01:08:28;;;;;;;4.27;3.93;;;;;;;;;;5019866;28;20196;-65
2022/01/11 01:10:55;;;;;;;3.87;3.57;;;;;;;;;;5025315;28;20257;-67
2022/01/11 01:13:32;;;;;;;3.60;3.30;;;;;;;;;;5022144;28;20256;-66
2022/01/11 01:16:04;;;;;;;4.20;3.77;;;;;;;;;;5048803;28;20218;-67
2022/01/11 01:18:46;;;;;;;3.73;3.43;;;;;;;;;;5051368;28;20867;-66
2022/01/11 01:21:17;;;;;;;3.80;3.50;;;;;;;;;;5043110;28;20291;-67
2022/01/11 01:23:48;;;;;;;3.97;3.67;;;;;;;;;;5028867;28;20218;-67
2022/01/11 01:26:18;;;;;;;3.47;3.17;;;;;;;;;;5049009;28;20218;-68
2022/01/11 01:28:48;;;;;;;3.90;3.60;;;;;;;;;;5041350;28;20216;-67
2022/01/11 01:31:21;;;;;;;3.60;3.30;;;;;;;;;;5045662;28;20186;-67
2022/01/11 01:33:50;;;;;;;4.07;3.77;;;;;;;;;;5049520;28;20210;-66
2022/01/11 01:36:19;;;;;;;3.83;3.53;;;;;;;;;;5044568;28;20222;-67
2022/01/11 01:39:04;;;;;;;3.53;3.23;;;;;;;;;;5051453;28;20225;-67
2022/01/11 01:41:33;;;;;;;4.77;3.07;;;;;;;;;;5032359;28;20201;-67
2022/01/11 01:44:04;;;;;;;3.90;3.53;;;;;;;;;;5049329;28;20214;-66
2022/01/11 01:46:35;;;;;;;3.63;3.33;;;;;;;;;;5032346;28;20286;-67
2022/01/11 01:49:10;;;;;;;7.33;3.73;;;;;;;;;;5046464;28;20218;-67
2022/01/11 01:51:40;;;;;;;3.87;3.57;;;;;;;;;;5047905;28;20217;-67
2022/01/11 01:54:13;;;;;;;3.93;3.63;;;;;;;;;;5046087;28;20211;-66
2022/01/11 01:56:44;;;;;;;3.60;3.30;;;;;;;;;;5047934;28;20195;-66
2022/01/11 01:59:13;;;;;;;3.60;3.30;;;;;;;;;;5034713;28;20214;-67
2022/01/11 02:01:47;;;;;;;3.80;3.50;;;;;;;;;;5048681;28;20197;-67
2022/01/11 02:04:19;;;;;;;3.27;3.00;;;;;;;;;;5047900;28;20197;-67
2022/01/11 02:06:48;;;;;;;3.50;3.20;;;;;;;;;;5049201;28;20214;-67
2022/01/11 02:09:18;;;;;;;4.03;3.73;;;;;;;;;;5029040;28;20652;-67
2022/01/11 02:11:50;;;;;;;3.83;3.53;;;;;;;;;;5047668;28;20705;-66
2022/01/11 02:14:20;;;;;;;4.07;3.77;;;;;;;;;;5048237;28;20229;-66
2022/01/11 02:16:53;;;;;;;3.90;3.60;;;;;;;;;;5061969;28;20267;-67
2022/01/11 02:19:28;;;;;;;3.70;3.40;;;;;;;;;;5032976;28;20654;-67
2022/01/11 02:21:59;;;;;;;3.60;3.30;;;;;;;;;;5030481;28;20233;-67
2022/01/11 02:24:40;;;;;;;3.33;3.03;;;;;;;;;;5029598;28;20217;-67
2022/01/11 02:27:12;;;;;;;3.90;3.50;;;;;;;;;;5043580;28;21088;-67
2022/01/11 02:29:44;;;;;;;3.67;3.37;;;;;;;;;;5053667;28;20199;-67
2022/01/11 02:32:15;;;;;;;3.57;3.27;;;;;;;;;;5031204;28;20203;-67
2022/01/11 02:34:48;;;;;;;3.50;3.20;;;;;;;;;;5059172;28;20202;-67
2022/01/11 02:37:17;;;;;;;4.20;3.90;;;;;;;;;;5057910;28;20289;-67
2022/01/11 02:39:50;;;;;;;4.67;3.87;;;;;;;;;;5030926;28;20383;-67
2022/01/11 02:42:23;;;;;;;3.70;3.40;;;;;;;;;;5040704;28;20210;-67
2022/01/11 02:44:55;;;;;;;3.63;3.33;;;;;;;;;;5044393;28;20263;-66
2022/01/11 02:47:26;;;;;;;3.90;3.50;;;;;;;;;;5044285;28;20615;-66
2022/01/11 02:49:59;;;;;;;3.80;3.50;;;;;;;;;;5029193;28;20205;-66
2022/01/11 02:52:31;;;;;;;3.30;3.00;;;;;;;;;;5042571;28;20206;-66
2022/01/11 02:55:02;;;;;;;3.70;3.40;;;;;;;;;;5044742;28;20198;-66
2022/01/11 02:57:38;;;;;;;3.60;3.30;;;;;;;;;;5032137;28;20205;-66
2022/01/11 03:00:16;;;;;;;3.93;3.63;;;;;;;;;;5029522;28;20202;-66
2022/01/11 03:02:51;;;;;;;3.47;3.27;;;;;;;;;;5047463;28;20195;-66
2022/01/11 03:05:20;;;;;;;4.40;4.10;;;;;;;;;;5030150;28;20186;-66
2022/01/11 03:07:55;;;;;;;4.00;3.70;;;;;;;;;;5049025;28;20336;-67
2022/01/11 03:12:58;;;;;;;4.10;3.80;;;;;;;;;;5043269;28;20217;-67
2022/01/11 03:15:29;;;;;;;3.77;3.47;;;;;;;;;;5048507;28;20218;-66
2022/01/11 03:18:05;;;;;;;4.57;4.17;;;;;;;;;;5046519;28;20202;-66
2022/01/11 03:20:36;;;;;;;5.10;4.70;;;;;;;;;;5049110;28;20195;-66
2022/01/11 03:23:09;;;;;;;4.33;3.93;;;;;;;;;;5042401;28;20689;-66
2022/01/11 03:25:43;;;;;;;4.97;3.90;;;;;;;;;;5013121;28;20214;-66
2022/01/11 03:28:15;;;;;;;4.63;4.23;;;;;;;;;;5039118;28;20241;-66
2022/01/11 03:30:45;;;;;;;4.90;4.50;;;;;;;;;;5050923;28;20541;-67
2022/01/11 03:33:18;;;;;;;4.60;4.30;;;;;;;;;;5031298;28;20195;-67
2022/01/11 03:35:54;;;;;;;4.10;3.73;;;;;;;;;;5041013;28;20210;-66
2022/01/11 03:38:27;;;;;;;4.53;4.13;;;;;;;;;;5048233;28;20660;-66
2022/01/11 03:40:59;;;;;;;4.60;4.20;;;;;;;;;;5044743;28;20659;-66
2022/01/11 03:43:29;;;;;;;4.27;3.87;;;;;;;;;;5030817;28;20214;-67
2022/01/11 03:45:59;;;;;;;4.20;3.90;;;;;;;;;;5041356;28;20223;-66
2022/01/11 03:48:29;;;;;;;4.23;3.93;;;;;;;;;;5045479;28;20214;-67
2022/01/11 03:50:59;;;;;;;4.60;4.20;;;;;;;;;;5043920;28;20213;-66
2022/01/11 03:53:39;;;;;;;4.50;4.10;;;;;;;;;;5046091;28;20659;-66
2022/01/11 03:56:21;;;;;;;4.73;4.17;;;;;;;;;;5045815;28;20252;-66
2022/01/11 03:58:53;;;;;;;4.37;3.97;;;;;;;;;;5046559;28;20213;-66
2022/01/11 04:01:25;;;;;;;4.47;4.07;;;;;;;;;;5025994;28;20676;-66
2022/01/11 04:03:55;;;;;;;4.43;4.03;;;;;;;;;;5054719;28;20241;-66
2022/01/11 04:06:27;;;;;;;4.40;4.00;;;;;;;;;;5045964;28;20232;-67
2022/01/11 04:08:57;;;;;;;4.50;4.10;;;;;;;;;;5044532;28;20210;-66
2022/01/11 04:11:29;;;;;;;4.53;4.13;;;;;;;;;;5020624;28;20366;-67
2022/01/11 04:14:00;;;;;;;4.57;4.20;;;;;;;;;;5045219;28;20571;-66
2022/01/11 04:16:31;;;;;;;4.90;4.50;;;;;;;;;;5049676;28;20201;-66
2022/01/11 04:19:03;;;;;;;5.20;4.80;;;;;;;;;;5049488;28;20221;-67
2022/01/11 04:21:32;;;;;;;4.90;4.50;;;;;;;;;;5028575;28;20707;-66
2022/01/11 04:24:02;;;;;;;4.27;3.87;;;;;;;;;;5044305;28;20691;-66
2022/01/11 04:26:34;;;;;;;4.90;4.40;;;;;;;;;;5045038;28;20233;-66
2022/01/11 04:29:06;;;;;;;4.10;3.80;;;;;;;;;;5042171;28;20489;-66
2022/01/11 04:31:38;;;;;;;4.80;4.30;;;;;;;;;;5047564;28;20202;-66
2022/01/11 04:34:06;;;;;;;4.40;4.00;;;;;;;;;;5046801;28;20743;-66
2022/01/11 04:36:37;;;;;;;4.53;4.13;;;;;;;;;;5046429;28;20209;-67
2022/01/11 04:39:09;;;;;;;4.53;4.20;;;;;;;;;;5048213;28;20686;-67
2022/01/11 04:41:38;;;;;;;4.03;3.67;;;;;;;;;;5040672;28;20742;-66
2022/01/11 04:44:09;;;;;;;4.57;4.17;;;;;;;;;;5045787;28;20210;-67
2022/01/11 04:46:39;;;;;;;4.70;4.30;;;;;;;;;;5040194;28;20230;-67
2022/01/11 04:49:14;;;;;;;4.97;4.43;;;;;;;;;;5040996;28;20993;-67
2022/01/11 04:51:49;;;;;;;4.90;4.40;;;;;;;;;;5050762;28;20190;-67
2022/01/11 04:54:20;;;;;;;4.73;4.30;;;;;;;;;;5045352;28;20198;-67
2022/01/11 04:56:52;;;;;;;4.30;3.90;;;;;;;;;;5034686;28;20692;-67
2022/01/11 04:59:23;;;;;;;4.67;4.27;;;;;;;;;;5025518;28;20210;-66
2022/01/11 05:01:57;;;;;;;4.97;4.53;;;;;;;;;;5034914;28;20194;-68
2022/01/11 05:04:28;;;;;;;4.93;4.53;;;;;;;;;;5047051;28;20214;-67
2022/01/11 05:06:56;;;;;;;4.93;4.50;;;;;;;;;;5049829;28;20229;-67
2022/01/11 05:09:24;;;;;;;4.77;4.37;;;;;;;;;;5045248;28;20207;-67
2022/01/11 05:11:53;;;;;;;5.37;4.87;;;;;;;;;;5047263;28;20207;-67
2022/01/11 05:14:22;;;;;;;5.23;4.73;;;;;;;;;;5036423;28;20234;-66
2022/01/11 05:16:51;;;;;;;4.50;4.10;;;;;;;;;;5031272;28;20213;-67
2022/01/11 05:19:21;;;;;;;5.43;4.93;;;;;;;;;;5020729;28;20191;-67
2022/01/11 05:21:53;;;;;;;4.90;4.50;;;;;;;;;;5019617;28;20195;-67
2022/01/11 05:24:21;;;;;;;5.70;5.20;;;;;;;;;;5025123;28;20219;-66
2022/01/11 05:26:53;;;;;;;5.00;4.60;;;;;;;;;;5027053;28;20211;-67
2022/01/11 05:29:21;;;;;;;5.13;4.63;;;;;;;;;;5029800;28;20191;-65
2022/01/11 05:31:51;;;;;;;5.30;4.80;;;;;;;;;;5026230;28;20206;-66
2022/01/11 05:34:24;;;;;;;5.83;5.00;;;;;;;;;;5020699;28;20207;-67
2022/01/11 05:36:52;;;;;;;5.33;4.83;;;;;;;;;;5002927;28;20219;-67
2022/01/11 05:39:21;;;;;;;4.90;4.47;;;;;;;;;;5031766;28;20199;-66
2022/01/11 05:41:53;;;;;;;5.30;4.80;;;;;;;;;;5025438;28;20196;-66
2022/01/11 05:44:22;;;;;;;5.30;4.80;;;;;;;;;;5022271;28;20211;-65
2022/01/11 05:46:52;;;;;;;5.23;4.73;;;;;;;;;;5016757;28;20211;-67
2022/01/11 05:49:24;;;;;;;5.10;4.70;;;;;;;;;;5031532;28;20658;-67
2022/01/11 05:51:53;;;;;;;5.50;5.00;;;;;;;;;;5029546;28;20203;-67
2022/01/11 05:54:26;;;;;;;4.97;4.57;;;;;;;;;;4998399;28;20195;-68
2022/01/11 05:56:56;;;;;;;5.80;5.20;;;;;;;;;;5029071;28;20210;-67
2022/01/11 05:59:33;;;;;;;6.03;5.43;;;;;;;;;;5030521;28;20230;-67
2022/01/11 06:02:06;;;;;;;6.30;5.70;;;;;;;;;;5041117;28;20210;-67
2022/01/11 06:04:37;;;;;;;6.43;5.83;;;;;;;;;;5017539;28;20215;-67
2022/01/11 06:07:05;;;;;;;7.10;6.40;;;;;;;;;;5038686;28;20215;-66
2022/01/11 06:09:37;;;;;;;7.97;7.17;;;;;;;;;;5031634;28;20217;-66
2022/01/11 06:12:10;;;;;;;7.57;6.83;;;;;;;;;;5011182;28;20217;-67
2022/01/11 06:14:41;;;;;;;8.23;7.43;;;;;;;;;;5056043;28;20226;-67
2022/01/11 06:17:12;;;;;;;8.37;7.43;;;;;;;;;;5029507;28;20616;-66
2022/01/11 06:19:42;;;;;;;9.07;8.17;;;;;;;;;;5048475;28;20238;-67
2022/01/11 06:22:11;;;;;;;9.80;8.80;;;;;;;;;;5046908;28;20287;-67
2022/01/11 06:24:44;;;;;;;9.70;8.80;;;;;;;;;;5030280;28;20268;-67
2022/01/11 06:27:14;;;;;;;9.73;8.80;;;;;;;;;;5045606;28;20218;-67
2022/01/11 06:29:45;;;;;;;9.40;8.50;;;;;;;;;;5047775;28;20835;-67
2022/01/11 06:32:15;;;;;;;9.77;8.77;;;;;;;;;;5047635;28;20197;-67
2022/01/11 06:34:49;;;;;;;10.17;9.07;;;;;;;;;;5042796;28;20194;-67
2022/01/11 06:37:21;;;;;;;10.27;9.23;;;;;;;;;;5039685;28;20271;-66
2022/01/11 06:39:50;;;;;;;9.83;8.83;;;;;;;;;;5049158;28;20213;-67
2022/01/11 06:42:21;;;;;;;11.43;10.23;;;;;;;;;;5050277;28;20206;-67
2022/01/11 06:44:54;;;;;;;10.03;8.77;;;;;;;;;;5050285;28;20202;-67
2022/01/11 06:47:23;;;;;;;11.43;10.23;;;;;;;;;;5040060;28;25181;-67
2022/01/11 06:49:55;;;;;;;12.27;9.70;;;;;;;;;;5044649;28;20230;-67
2022/01/11 06:52:26;;;;;;;10.20;9.23;;;;;;;;;;5038658;28;20245;-67
2022/01/11 06:54:55;;;;;;;11.17;10.17;;;;;;;;;;5050580;28;20210;-67
2022/01/11 06:57:28;;;;;;;11.60;10.40;;;;;;;;;;5043502;28;20229;-67
2022/01/11 07:00:02;;;;;;;11.57;10.13;;;;;;;;;;5042592;28;20565;-66
2022/01/11 07:02:32;;;;;;;11.70;10.60;;;;;;;;;;5040263;28;20199;-67
2022/01/11 07:05:00;;;;;;;11.33;10.23;;;;;;;;;;5045574;28;20202;-67
2022/01/11 07:07:32;;;;;;;14.90;11.03;;;;;;;;;;5046428;28;20214;-67
2022/01/11 07:10:02;;;;;;;10.90;9.90;;;;;;;;;;5045733;28;20206;-67
2022/01/11 07:12:31;;;;;;;11.57;10.20;;;;;;;;;;5051289;28;20217;-67
2022/01/11 07:15:02;;;;;;;12.17;10.87;;;;;;;;;;5026737;28;20239;-68
2022/01/11 07:17:32;;;;;;;11.57;10.37;;;;;;;;;;5015223;28;20210;-67
2022/01/11 07:20:04;;;;;;;17.33;11.17;;;;;;;;;;4998331;28;20195;-67
2022/01/11 07:22:37;;;;;;;24.65;12.80;;;;;;;;;;5008703;28;20443;-69
2022/01/11 07:25:08;;;;;;;20.30;12.43;;;;;;;;;;5015689;28;20291;-69
2022/01/11 07:27:39;;;;;;;20.70;11.60;;;;;;;;;;5014050;28;20227;-69
2022/01/11 07:30:07;;;;;;;18.93;11.07;;;;;;;;;;5021518;28;20551;-70
2022/01/11 07:32:44;;;;;;;18.23;10.23;;;;;;;;;;5024720;28;20199;-69
2022/01/11 07:35:23;;;;;;;19.20;11.23;;;;;;;;;;5021691;28;20339;-69
2022/01/11 07:37:58;;;;;;;15.97;10.40;;;;;;;;;;5017663;28;20654;-69
2022/01/11 07:40:33;;;;;;;16.37;11.27;;;;;;;;;;5017466;28;20214;-67
2022/01/11 07:43:06;;;;;;;16.53;11.07;;;;;;;;;;5006839;28;20207;-66
2022/01/11 07:45:38;;;;;;;14.93;10.10;;;;;;;;;;5022231;28;20218;-69
2022/01/11 07:48:05;;;;;;;15.37;10.73;;;;;;;;;;4988486;28;20699;-68
2022/01/11 07:50:36;;;;;;;18.63;12.67;;;;;;;;;;5025794;28;20202;-67
2022/01/11 07:53:06;;;;;;;20.17;13.80;;;;;;;;;;5020619;28;20219;-68
2022/01/11 07:55:36;;;;;;;14.43;11.70;;;;;;;;;;5026974;28;20199;-68
2022/01/11 07:58:06;;;;;;;14.90;11.00;;;;;;;;;;5004244;28;20203;-69
2022/01/11 08:00:55;;;;;;;15.10;11.60;;;;;;;;;;5025303;28;20207;-68
2022/01/11 08:03:23;;;;;;;15.33;11.30;;;;;;;;;;5025813;28;20203;-67
2022/01/11 08:05:59;;;;;;;14.03;11.00;;;;;;;;;;5024965;28;20257;-66
2022/01/11 08:08:40;;;;;;;13.60;10.47;;;;;;;;;;5024553;28;20223;-67
2022/01/11 08:11:22;;;;;;;16.37;10.87;;;;;;;;;;5001071;28;20204;-66
2022/01/11 08:13:54;;;;;;;17.83;10.93;;;;;;;;;;5008456;28;20235;-67
2022/01/11 08:16:27;;;;;;;11.00;9.83;;;;;;;;;;5025911;28;20201;-68
2022/01/11 08:19:10;;;;;;;12.93;10.20;;;;;;;;;;5021870;28;20280;-69
2022/01/11 08:21:39;;;;;;;15.17;10.33;;;;;;;;;;5004912;28;20187;-67
2022/01/11 08:24:11;;;;;;;11.43;10.00;;;;;;;;;;4989346;28;20246;-66
2022/01/11 08:26:44;;;;;;;11.93;10.33;;;;;;;;;;5025812;28;20202;-68
2022/01/11 08:29:12;;;;;;;13.37;10.30;;;;;;;;;;5006227;28;20218;-67
2022/01/11 08:31:45;;;;;;;11.33;9.63;;;;;;;;;;5028030;28;20599;-70
2022/01/11 08:34:15;;;;;;;12.07;10.20;;;;;;;;;;5028994;28;20203;-69
2022/01/11 08:36:53;;;;;;;12.80;10.70;;;;;;;;;;5009574;28;20213;-67
2022/01/11 08:39:25;;;;;;;13.20;10.23;;;;;;;;;;5024266;28;20210;-69
2022/01/11 08:41:58;;;;;;;10.70;9.60;;;;;;;;;;5032326;28;20183;-71
2022/01/11 08:44:28;;;;;;;10.83;9.73;;;;;;;;;;5015861;28;20218;-71
2022/01/11 08:46:57;;;;;;;10.60;9.60;;;;;;;;;;5018217;28;20192;-70
2022/01/11 08:49:27;;;;;;;11.70;9.07;;;;;;;;;;5008210;28;20215;-72
2022/01/11 08:51:59;;;;;;;11.63;9.70;;;;;;;;;;5029346;28;20484;-69
2022/01/11 08:54:29;;;;;;;10.53;9.43;;;;;;;;;;5030638;28;20639;-71
2022/01/11 08:57:00;;;;;;;11.60;9.73;;;;;;;;;;5027714;28;20197;-69
2022/01/11 08:59:30;;;;;;;10.50;8.93;;;;;;;;;;5028256;28;20263;-70
2022/01/11 09:02:00;;;;;;;10.83;9.73;;;;;;;;;;5028409;28;20191;-68
2022/01/11 09:04:34;;;;;;;11.97;9.50;;;;;;;;;;5044853;28;20313;-67
2022/01/11 09:07:04;;;;;;;9.93;8.93;;;;;;;;;;5029985;28;20196;-70
2022/01/11 09:09:40;;;;;;;9.97;8.87;;;;;;;;;;5029080;28;20214;-69
2022/01/11 09:12:12;;;;;;;10.17;9.17;;;;;;;;;;5025951;28;20211;-68
2022/01/11 09:14:41;;;;;;;10.70;9.60;;;;;;;;;;5032981;28;20252;-68
2022/01/11 09:17:13;;;;;;;11.23;9.27;;;;;;;;;;5026767;28;20222;-69
2022/01/11 09:19:45;;;;;;;10.83;9.47;;;;;;;;;;5044319;28;20197;-70
2022/01/11 09:22:18;;;;;;;11.13;9.60;;;;;;;;;;5027225;28;20207;-67
2022/01/11 09:24:47;;;;;;;10.47;9.37;;;;;;;;;;5010162;28;20238;-68
2022/01/11 09:27:17;;;;;;;11.43;9.70;;;;;;;;;;5022838;28;20204;-67
2022/01/11 09:29:46;;;;;;;11.07;9.97;;;;;;;;;;5015948;28;20214;-68
2022/01/11 09:32:20;;;;;;;10.03;9.03;;;;;;;;;;5032034;28;20264;-67
2022/01/11 09:34:50;;;;;;;10.23;9.23;;;;;;;;;;5013134;28;20687;-67
2022/01/11 09:37:23;;;;;;;10.67;9.57;;;;;;;;;;5018813;28;20222;-69
2022/01/11 09:39:52;;;;;;;10.60;9.50;;;;;;;;;;5032162;28;20214;-69
2022/01/11 09:42:23;;;;;;;9.80;8.80;;;;;;;;;;5026393;28;20222;-69
2022/01/11 09:44:51;;;;;;;9.50;8.60;;;;;;;;;;5025992;28;20617;-70
2022/01/11 09:47:24;;;;;;;9.20;8.30;;;;;;;;;;5006092;28;20874;-70
2022/01/11 09:49:58;;;;;;;8.63;7.83;;;;;;;;;;5029438;28;20274;-70
2022/01/11 09:52:33;;;;;;;9.77;8.57;;;;;;;;;;5028406;28;20190;-71
2022/01/11 09:55:07;;;;;;;9.50;8.60;;;;;;;;;;5030891;28;20222;-70
2022/01/11 09:57:40;;;;;;;9.43;8.43;;;;;;;;;;5035957;28;20215;-71
2022/01/11 10:00:23;;;;;;;11.67;9.07;;;;;;;;;;5018458;28;20246;-65
2022/01/11 10:02:52;;;;;;;12.37;9.03;;;;;;;;;;5035884;28;20207;-69
2022/01/11 10:05:23;;;;;;;12.00;8.50;;;;;;;;;;5016447;28;20206;-71
2022/01/11 10:07:55;;;;;;;9.53;8.63;;;;;;;;;;5028015;28;20656;-71
2022/01/11 10:10:27;;;;;;;8.90;8.10;;;;;;;;;;5026857;28;20246;-69
2022/01/11 10:13:03;;;;;;;10.03;8.90;;;;;;;;;;5020228;28;20219;-68
2022/01/11 10:15:36;;;;;;;9.63;8.70;;;;;;;;;;4991912;28;20239;-69
2022/01/11 10:18:06;;;;;;;9.40;8.50;;;;;;;;;;5004863;28;20227;-69
2022/01/11 10:20:39;;;;;;;8.83;7.93;;;;;;;;;;4992193;28;20210;-69
2022/01/11 10:23:16;;;;;;;8.87;8.07;;;;;;;;;;4970363;28;20836;-71
2022/01/11 10:25:50;;;;;;;9.60;8.50;;;;;;;;;;4988652;28;20212;-72
2022/01/11 10:28:35;;;;;;;9.13;8.03;;;;;;;;;;5003565;28;20234;-71
2022/01/11 10:31:05;;;;;;;9.37;8.33;;;;;;;;;;5003996;28;20207;-70
2022/01/11 10:33:35;;;;;;;9.10;8.20;;;;;;;;;;5006966;28;20286;-72
2022/01/11 10:36:07;;;;;;;10.40;8.20;;;;;;;;;;5003226;28;20219;-71
2022/01/11 10:38:42;;;;;;;12.33;7.90;;;;;;;;;;5004467;28;20584;-70
2022/01/11 10:41:11;;;;;;;9.00;8.00;;;;;;;;;;5004579;28;20223;-72
2022/01/11 10:43:56;;;;;;;10.73;8.90;;;;;;;;;;4998295;28;20208;-72
2022/01/11 10:46:44;;;;;;;9.20;8.40;;;;;;;;;;5004395;28;20203;-70
2022/01/11 10:49:31;;;;;;;10.27;8.57;;;;;;;;;;5001459;28;20786;-69
2022/01/11 10:52:21;;;;;;;11.63;8.57;;;;;;;;;;5004475;28;20210;-71
2022/01/11 10:54:51;;;;;;;9.73;8.27;;;;;;;;;;5005730;28;20210;-70
2022/01/11 10:57:30;;;;;;;9.13;7.70;;;;;;;;;;4986807;28;20629;-70
2022/01/11 11:00:22;;;;;;;9.40;8.50;;;;;;;;;;5003078;28;20229;-70
2022/01/11 11:02:57;;;;;;;8.30;7.47;;;;;;;;;;4990406;28;20188;-68
2022/01/11 11:05:32;;;;;;;8.70;7.80;;;;;;;;;;4997082;28;20207;-68
2022/01/11 11:08:09;;;;;;;10.90;9.73;;;;;;;;;;5003582;28;20216;-69
2022/01/11 11:10:40;;;;;;;10.00;9.00;;;;;;;;;;4993565;28;20199;-70
2022/01/11 11:13:11;;;;;;;11.13;9.83;;;;;;;;;;4983580;28;20641;-70
2022/01/11 11:15:39;;;;;;;10.03;9.03;;;;;;;;;;5019772;28;20230;-69
2022/01/11 11:18:22;;;;;;;9.77;8.77;;;;;;;;;;5027017;28;20194;-69
2022/01/11 11:20:50;;;;;;;9.00;8.10;;;;;;;;;;5035410;28;20202;-69
2022/01/11 11:23:20;;;;;;;10.60;9.50;;;;;;;;;;4989684;28;20207;-68
2022/01/11 11:25:51;;;;;;;10.67;9.57;;;;;;;;;;5038702;28;20213;-68
2022/01/11 11:28:22;;;;;;;11.37;9.47;;;;;;;;;;5025718;28;20214;-69
2022/01/11 11:30:51;;;;;;;10.00;9.07;;;;;;;;;;5033823;28;20207;-69
2022/01/11 11:33:24;;;;;;;10.00;8.83;;;;;;;;;;5024369;28;20191;-69
2022/01/11 11:36:00;;;;;;;10.13;9.13;;;;;;;;;;5033779;28;20210;-69
2022/01/11 11:38:34;;;;;;;10.40;8.63;;;;;;;;;;5006369;28;20205;-69
2022/01/11 11:41:04;;;;;;;9.37;8.37;;;;;;;;;;5022479;28;20202;-69
2022/01/11 11:43:34;;;;;;;8.77;7.97;;;;;;;;;;5025282;28;20214;-69
2022/01/11 11:46:06;;;;;;;11.20;8.53;;;;;;;;;;5021763;28;20206;-68
2022/01/11 11:48:37;;;;;;;9.23;8.33;;;;;;;;;;5022633;28;20243;-67
2022/01/11 11:51:12;;;;;;;8.97;8.07;;;;;;;;;;5022777;28;20206;-67
2022/01/11 11:53:51;;;;;;;8.93;8.03;;;;;;;;;;5024494;28;20632;-68
2022/01/11 11:56:26;;;;;;;8.87;7.97;;;;;;;;;;5003984;28;20297;-67
2022/01/11 11:58:58;;;;;;;9.17;7.43;;;;;;;;;;5025191;28;20755;-66
2022/01/11 12:01:29;;;;;;;7.63;6.17;;;;;;;;;;5003007;28;20207;-66
2022/01/11 12:04:04;;;;;;;6.87;5.60;;;;;;;;;;5020053;28;20207;-66
2022/01/11 12:06:33;;;;;;;6.77;5.80;;;;;;;;;;5015433;28;20214;-66
2022/01/11 12:09:07;;;;;;;8.90;5.40;;;;;;;;;;5020604;28;20269;-67
2022/01/11 12:11:51;;;;;;;5.93;5.17;;;;;;;;;;5031858;28;20788;-68
2022/01/11 12:14:34;;;;;;;5.93;5.33;;;;;;;;;;5027134;28;20305;-68
2022/01/11 12:17:23;;;;;;;5.33;4.83;;;;;;;;;;5013250;28;20199;-66
2022/01/11 12:19:56;;;;;;;6.20;5.20;;;;;;;;;;5023617;28;20215;-65
2022/01/11 12:22:27;;;;;;;5.67;5.07;;;;;;;;;;5015839;28;20209;-65
2022/01/11 12:25:03;;;;;;;5.53;5.03;;;;;;;;;;5022670;28;20219;-67
2022/01/11 12:27:52;;;;;;;4.93;4.43;;;;;;;;;;5023236;28;20215;-68
2022/01/11 12:30:26;;;;;;;5.33;4.80;;;;;;;;;;5027347;28;20725;-65
2022/01/11 12:33:19;;;;;;;5.30;4.07;;;;;;;;;;5022823;28;20286;-66
2022/01/11 12:35:56;;;;;;;6.83;5.13;;;;;;;;;;5024582;28;20246;-67
2022/01/11 12:38:26;;;;;;;4.97;4.43;;;;;;;;;;5021522;28;20290;-68
2022/01/11 12:40:57;;;;;;;4.83;4.33;;;;;;;;;;5025524;28;20211;-65
2022/01/11 12:43:56;;;;;;;6.57;4.47;;;;;;;;;;4997336;28;20238;-66
2022/01/11 12:46:48;;;;;;;4.60;4.20;;;;;;;;;;5007155;28;20260;-68
2022/01/11 12:49:22;;;;;;;4.60;4.13;;;;;;;;;;5002148;28;20610;-69
2022/01/11 12:52:07;;;;;;;4.50;4.10;;;;;;;;;;5026534;28;20280;-69
2022/01/11 12:54:35;;;;;;;4.30;3.90;;;;;;;;;;5018786;28;20207;-69
2022/01/11 12:57:13;;;;;;;4.10;3.50;;;;;;;;;;5005734;28;20191;-70
2022/01/11 12:59:47;;;;;;;4.37;3.97;;;;;;;;;;5020956;28;20233;-70
2022/01/11 13:02:24;;;;;;;3.77;3.47;;;;;;;;;;5017317;28;20191;-70
2022/01/11 13:05:04;;;;;;;3.70;3.40;;;;;;;;;;5009141;28;20528;-70
2022/01/11 13:07:37;;;;;;;3.67;3.37;;;;;;;;;;5010969;28;20664;-69
2022/01/11 13:10:24;;;;;;;4.47;3.57;;;;;;;;;;5023640;28;20571;-68
2022/01/11 13:13:04;;;;;;;4.20;3.57;;;;;;;;;;5022821;28;20219;-68
2022/01/11 13:15:40;;;;;;;3.80;3.30;;;;;;;;;;5024834;28;20235;-70
2022/01/11 13:18:14;;;;;;;4.53;3.10;;;;;;;;;;5022874;28;20194;-69
2022/01/11 13:20:59;;;;;;;3.87;3.47;;;;;;;;;;5026266;28;20739;-69
2022/01/11 13:24:00;;;;;;;6.03;3.40;;;;;;;;;;5011692;28;20213;-71
2022/01/11 13:26:36;;;;;;;3.27;2.90;;;;;;;;;;5015019;28;20198;-72
2022/01/11 13:29:07;;;;;;;3.53;3.23;;;;;;;;;;5027492;28;20245;-68
2022/01/11 13:31:40;;;;;;;3.53;3.20;;;;;;;;;;5025985;28;20192;-68
2022/01/11 13:34:22;;;;;;;3.87;3.33;;;;;;;;;;5011973;28;20211;-70
2022/01/11 13:36:56;;;;;;;3.90;3.50;;;;;;;;;;5006229;28;20225;-69
2022/01/11 13:39:37;;;;;;;3.80;3.43;;;;;;;;;;5026811;28;20869;-69
2022/01/11 13:42:28;;;;;;;4.50;3.57;;;;;;;;;;5013592;28;21418;-69
2022/01/11 13:45:09;;;;;;;3.60;3.30;;;;;;;;;;5027379;28;20207;-69
2022/01/11 13:47:38;;;;;;;4.63;3.70;;;;;;;;;;5024025;28;20218;-69
2022/01/11 13:50:09;;;;;;;3.87;3.40;;;;;;;;;;5026702;28;20239;-70
2022/01/11 13:52:37;;;;;;;4.83;3.23;;;;;;;;;;5027353;28;20229;-69
2022/01/11 13:55:07;;;;;;;3.97;3.57;;;;;;;;;;5025564;28;20188;-70
2022/01/11 13:57:45;;;;;;;3.93;3.63;;;;;;;;;;5026818;28;20205;-70
2022/01/11 14:00:16;;;;;;;5.70;3.30;;;;;;;;;;5008590;28;20203;-70
2022/01/11 14:03:18;;;;;;;4.10;3.70;;;;;;;;;;5019644;28;20203;-69
2022/01/11 14:05:45;;;;;;;5.03;3.27;;;;;;;;;;5027937;28;20194;-70
2022/01/11 14:08:15;;;;;;;4.13;3.73;;;;;;;;;;5028928;28;20256;-69
2022/01/11 14:10:53;;;;;;;4.83;3.57;;;;;;;;;;5023678;28;20214;-68
2022/01/11 14:13:24;;;;;;;4.00;3.60;;;;;;;;;;5019082;28;20230;-68
2022/01/11 14:15:53;;;;;;;3.80;3.50;;;;;;;;;;5006167;28;20203;-69
2022/01/11 14:18:34;;;;;;;3.70;3.30;;;;;;;;;;5023421;28;20617;-68
2022/01/11 14:21:17;;;;;;;5.53;3.37;;;;;;;;;;5023837;28;20280;-68
2022/01/11 14:23:54;;;;;;;3.87;3.47;;;;;;;;;;5022407;28;20211;-70
2022/01/11 14:26:43;;;;;;;3.57;3.23;;;;;;;;;;5025700;28;20199;-67
2022/01/11 14:29:22;;;;;;;4.37;3.00;;;;;;;;;;5021302;28;20203;-65
2022/01/11 14:32:05;;;;;;;3.70;3.27;;;;;;;;;;5025770;28;20191;-65
2022/01/11 14:34:37;;;;;;;3.37;3.07;;;;;;;;;;5023241;28;20195;-69
2022/01/11 14:37:20;;;;;;;3.00;2.77;;;;;;;;;;5020867;28;20552;-71
2022/01/11 14:39:55;;;;;;;4.07;3.23;;;;;;;;;;5024368;28;20312;-70
2022/01/11 14:42:34;;;;;;;3.80;3.03;;;;;;;;;;5011611;28;20195;-70
2022/01/11 14:45:07;;;;;;;3.20;2.90;;;;;;;;;;5022728;28;20243;-69
2022/01/11 14:47:56;;;;;;;6.87;3.60;;;;;;;;;;5019937;28;20250;-68
2022/01/11 14:50:36;;;;;;;3.43;3.13;;;;;;;;;;5025054;28;20730;-68
2022/01/11 14:53:14;;;;;;;3.53;2.90;;;;;;;;;;5006483;28;20233;-68
2022/01/11 14:55:50;;;;;;;5.90;3.57;;;;;;;;;;5023912;28;20199;-68
2022/01/11 14:58:23;;;;;;;3.77;3.17;;;;;;;;;;5027122;28;20529;-69
2022/01/11 15:00:55;;;;;;;3.57;3.23;;;;;;;;;;5020085;28;20269;-67
2022/01/11 15:03:28;;;;;;;3.07;2.87;;;;;;;;;;5024955;28;20199;-68
2022/01/11 15:06:07;;;;;;;3.30;3.00;;;;;;;;;;5023712;28;20663;-71
2022/01/11 15:08:41;;;;;;;6.03;2.80;;;;;;;;;;5024833;28;20541;-69
2022/01/11 15:11:15;;;;;;;3.40;3.07;;;;;;;;;;5016087;28;20203;-69
2022/01/11 15:13:50;;;;;;;4.03;3.00;;;;;;;;;;5024762;28;20226;-69
2022/01/11 15:16:21;;;;;;;3.03;2.73;;;;;;;;;;5025865;28;20635;-69
2022/01/11 15:18:54;;;;;;;4.23;2.90;;;;;;;;;;5025276;28;20214;-69